createdAt,value
2022-09-11T00:00:57.424Z,12.52
2022-09-11T00:03:28.211Z,11.18
2022-09-11T00:05:54.862Z,11.90
2022-09-11T00:08:21.879Z,11.98
2022-09-11T00:10:49.427Z,12.05
2022-09-11T00:13:21.446Z,10.82
2022-09-11T00:15:50.728Z,11.90
2022-09-11T00:18:23.850Z,11.48
2022-09-11T00:20:53.843Z,11.38
2022-09-11T00:23:22.853Z,11.50
2022-09-11T00:25:50.180Z,11.20
2022-09-11T00:28:20.055Z,11.88
2022-09-11T00:30:57.068Z,11.82
2022-09-11T00:33:23.902Z,11.95
2022-09-11T00:35:59.590Z,12.18
2022-09-11T00:38:28.314Z,12.70
2022-09-11T00:40:58.389Z,12.88
2022-09-11T00:43:26.908Z,13.80
2022-09-11T00:46:01.881Z,14.40
2022-09-11T00:48:34.369Z,14.48
2022-09-11T00:51:03.922Z,14.85
2022-09-11T00:53:36.266Z,14.27
2022-09-11T00:56:07.805Z,14.80
2022-09-11T01:01:05.301Z,15.27
2022-09-11T01:03:35.011Z,16.30
2022-09-11T01:06:02.866Z,15.77
2022-09-11T01:08:29.488Z,16.00
2022-09-11T01:11:24.132Z,16.50
2022-09-11T01:14:06.364Z,16.62
2022-09-11T01:19:46.593Z,16.62
2022-09-11T01:22:44.391Z,16.87
2022-09-11T01:25:31.586Z,16.77
2022-09-11T01:28:01.049Z,18.90
2022-09-11T01:30:37.563Z,17.92
2022-09-11T01:33:28.219Z,17.20
2022-09-11T01:36:26.434Z,18.30
2022-09-11T01:38:57.838Z,19.85
2022-09-11T01:41:42.456Z,19.83
2022-09-11T01:44:16.636Z,21.00
2022-09-11T01:46:47.754Z,20.35
2022-09-11T01:49:35.876Z,19.70
2022-09-11T01:52:10.934Z,19.92
2022-09-11T01:54:51.256Z,20.77
2022-09-11T01:57:32.009Z,20.52
2022-09-11T02:00:02.170Z,20.05
2022-09-11T02:02:38.396Z,20.85
2022-09-11T02:05:21.043Z,20.48
2022-09-11T02:07:55.961Z,19.65
2022-09-11T02:10:29.248Z,20.45
2022-09-11T02:13:14.373Z,21.48
2022-09-11T02:15:53.804Z,20.15
2022-09-11T02:18:26.996Z,21.73
2022-09-11T02:20:54.123Z,21.52
2022-09-11T02:23:21.302Z,22.70
2022-09-11T02:25:48.560Z,23.15
2022-09-11T02:28:16.825Z,23.62
2022-09-11T02:30:44.008Z,24.05
2022-09-11T02:33:28.502Z,24.12
2022-09-11T02:36:19.192Z,23.80
2022-09-11T02:39:01.276Z,25.20
2022-09-11T02:41:39.759Z,27.23
2022-09-11T02:44:21.292Z,26.75
2022-09-11T02:46:54.021Z,26.40
2022-09-11T02:49:39.130Z,26.05
2022-09-11T02:52:21.673Z,26.00
2022-09-11T02:54:57.747Z,26.60
2022-09-11T02:57:37.013Z,26.67
2022-09-11T03:00:07.611Z,27.50
2022-09-11T03:02:38.885Z,24.75
2022-09-11T03:05:06.635Z,22.87
2022-09-11T03:07:33.582Z,22.08
2022-09-11T03:10:00.600Z,21.87
2022-09-11T03:12:28.597Z,21.30
2022-09-11T03:14:57.050Z,18.87
2022-09-11T03:17:25.432Z,21.35
2022-09-11T03:19:52.204Z,19.87
2022-09-11T03:22:19.243Z,20.77
2022-09-11T03:24:46.395Z,19.90
2022-09-11T03:27:13.231Z,20.37
2022-09-11T03:29:40.828Z,14.75
2022-09-11T03:32:07.799Z,9.85
2022-09-11T03:34:34.529Z,6.97
2022-09-11T03:37:02.208Z,7.32
2022-09-11T03:39:29.284Z,6.43
2022-09-11T03:41:58.395Z,6.00
2022-09-11T03:44:25.628Z,4.65
2022-09-11T03:46:53.028Z,5.78
2022-09-11T03:49:20.435Z,4.00
2022-09-11T03:51:47.898Z,3.65
2022-09-11T03:54:16.112Z,4.68
2022-09-11T03:56:44.111Z,4.30
2022-09-11T03:59:10.844Z,5.20
2022-09-11T04:01:38.283Z,5.28
2022-09-11T04:04:06.222Z,6.28
2022-09-11T04:06:33.498Z,5.90
2022-09-11T04:09:01.035Z,4.70
2022-09-11T04:11:28.685Z,4.40
2022-09-11T04:13:55.566Z,3.92
2022-09-11T04:16:23.418Z,3.05
2022-09-11T04:18:53.413Z,6.95
2022-09-11T04:21:20.291Z,3.83
2022-09-11T04:23:53.341Z,5.80
2022-09-11T04:26:22.371Z,3.53
2022-09-11T04:28:50.150Z,3.17
2022-09-11T04:31:18.664Z,3.17
2022-09-11T04:33:47.167Z,5.28
2022-09-11T04:36:18.427Z,7.85
2022-09-11T04:38:46.023Z,3.97
2022-09-11T04:41:14.561Z,5.57
2022-09-11T04:43:42.117Z,3.78
2022-09-11T04:46:14.169Z,7.62
2022-09-11T04:48:51.658Z,2.90
2022-09-11T04:51:25.420Z,2.30
2022-09-11T04:53:55.038Z,3.00
2022-09-11T04:56:21.747Z,2.70
2022-09-11T04:59:00.391Z,6.07
2022-09-11T05:01:30.149Z,3.37
2022-09-11T05:03:57.355Z,2.58
2022-09-11T05:06:24.055Z,3.00
2022-09-11T05:08:52.985Z,3.37
2022-09-11T05:11:20.974Z,2.85
2022-09-11T05:13:48.579Z,2.85
2022-09-11T05:16:17.534Z,3.90
2022-09-11T05:18:51.962Z,2.58
2022-09-11T05:21:22.711Z,2.33
2022-09-11T05:23:51.618Z,2.03
2022-09-11T05:26:26.830Z,2.33
2022-09-11T05:28:55.668Z,3.08
2022-09-11T05:31:23.522Z,4.00
2022-09-11T05:33:50.286Z,3.10
2022-09-11T05:36:17.894Z,2.97
2022-09-11T05:38:45.404Z,4.90
2022-09-11T05:41:13.729Z,3.78
2022-09-11T05:43:42.133Z,3.25
2022-09-11T05:46:13.224Z,4.40
2022-09-11T05:48:40.919Z,2.90
2022-09-11T05:51:15.935Z,3.53
2022-09-11T05:53:44.456Z,2.97
2022-09-11T05:56:20.028Z,2.60
2022-09-11T05:58:48.955Z,3.42
2022-09-11T06:01:18.297Z,2.72
2022-09-11T06:03:49.492Z,2.30
2022-09-11T06:06:18.526Z,3.10
2022-09-11T06:08:47.424Z,2.30
2022-09-11T06:11:16.922Z,2.20
2022-09-11T06:13:46.568Z,2.42
2022-09-11T06:16:18.262Z,2.40
2022-09-11T06:18:49.328Z,2.60
2022-09-11T06:21:21.943Z,2.20
2022-09-11T06:23:50.343Z,2.45
2022-09-11T06:26:26.253Z,2.85
2022-09-11T06:28:54.248Z,2.70
2022-09-11T06:31:24.780Z,2.20
2022-09-11T06:33:52.018Z,2.15
2022-09-11T06:36:21.260Z,2.40
2022-09-11T06:38:54.149Z,3.22
2022-09-11T06:41:24.502Z,2.42
2022-09-11T06:43:53.241Z,3.28
2022-09-11T06:46:22.732Z,2.85
2022-09-11T06:48:51.104Z,3.50
2022-09-11T06:53:55.249Z,3.58
2022-09-11T06:56:22.485Z,6.80
2022-09-11T06:58:50.462Z,3.55
2022-09-11T07:01:19.975Z,3.42
2022-09-11T07:03:50.238Z,3.17
2022-09-11T07:06:22.503Z,3.08
2022-09-11T07:08:55.279Z,3.22
2022-09-11T07:11:22.173Z,2.80
2022-09-11T07:13:49.379Z,2.78
2022-09-11T07:16:16.670Z,2.95
2022-09-11T07:18:45.599Z,2.80
2022-09-11T07:21:16.029Z,2.85
2022-09-11T07:23:57.181Z,3.77
2022-09-11T07:26:26.462Z,4.18
2022-09-11T07:28:56.095Z,2.87
2022-09-11T07:31:26.801Z,2.65
2022-09-11T07:33:55.058Z,2.85
2022-09-11T07:36:26.959Z,2.80
2022-09-11T07:38:55.056Z,2.70
2022-09-11T07:41:23.971Z,2.85
2022-09-11T07:43:57.335Z,2.70
2022-09-11T07:46:26.976Z,3.75
2022-09-11T07:48:57.447Z,2.97
2022-09-11T07:51:26.818Z,2.55
2022-09-11T07:53:56.604Z,2.97
2022-09-11T07:56:26.119Z,3.50
2022-09-11T07:58:55.295Z,3.12
2022-09-11T08:01:27.830Z,3.28
2022-09-11T08:04:03.825Z,3.20
2022-09-11T08:06:32.965Z,2.90
2022-09-11T08:09:06.070Z,5.32
2022-09-11T08:11:40.552Z,3.50
2022-09-11T08:14:07.949Z,3.30
2022-09-11T08:16:37.525Z,3.08
2022-09-11T08:19:05.513Z,3.47
2022-09-11T08:21:32.845Z,3.53
2022-09-11T08:23:59.790Z,3.08
2022-09-11T08:26:30.327Z,3.17
2022-09-11T08:29:00.014Z,3.20
2022-09-11T08:31:27.991Z,3.80
2022-09-11T08:33:56.139Z,3.28
2022-09-11T08:36:24.316Z,3.40
2022-09-11T08:38:52.630Z,3.30
2022-09-11T08:41:28.558Z,4.05
2022-09-11T08:44:27.360Z,3.53
2022-09-11T08:47:00.465Z,7.12
2022-09-11T08:49:35.648Z,6.97
2022-09-11T08:52:05.919Z,4.15
2022-09-11T08:54:37.979Z,3.62
2022-09-11T09:00:04.885Z,3.85
2022-09-11T09:02:52.163Z,4.28
2022-09-11T09:05:45.984Z,5.40
2022-09-11T09:08:25.402Z,5.35
2022-09-11T09:11:13.673Z,5.53
2022-09-11T09:13:58.546Z,5.28
2022-09-11T09:16:38.990Z,5.95
2022-09-11T09:19:13.043Z,5.85
2022-09-11T09:22:03.171Z,5.82
2022-09-11T09:24:40.323Z,6.15
2022-09-11T09:27:07.562Z,5.95
2022-09-11T09:29:38.679Z,6.20
2022-09-11T09:32:14.825Z,6.32
2022-09-11T09:34:46.097Z,5.85
2022-09-11T09:37:22.165Z,6.15
2022-09-11T09:39:51.448Z,6.50
2022-09-11T09:42:28.290Z,6.20
2022-09-11T09:45:16.845Z,9.43
2022-09-11T09:47:47.894Z,6.85
2022-09-11T09:50:21.346Z,6.82
2022-09-11T09:52:49.823Z,6.32
2022-09-11T09:55:18.893Z,8.18
2022-09-11T09:57:45.638Z,6.57
2022-09-11T10:00:17.431Z,6.97
2022-09-11T10:02:49.231Z,6.62
2022-09-11T10:05:28.747Z,6.93
2022-09-11T10:08:01.757Z,6.65
2022-09-11T10:10:40.778Z,6.18
2022-09-11T10:13:21.275Z,6.93
2022-09-11T10:15:49.909Z,7.00
2022-09-11T10:18:26.175Z,6.50
2022-09-11T10:20:52.958Z,6.97
2022-09-11T10:23:25.915Z,7.25
2022-09-11T10:25:53.339Z,8.68
2022-09-11T10:28:32.970Z,7.35
2022-09-11T10:31:02.980Z,6.87
2022-09-11T10:33:33.633Z,6.95
2022-09-11T10:36:04.343Z,6.65
2022-09-11T10:38:36.939Z,7.57
2022-09-11T10:41:20.975Z,6.75
2022-09-11T10:44:05.420Z,6.05
2022-09-11T10:46:41.139Z,7.20
2022-09-11T10:49:11.919Z,6.68
2022-09-11T10:51:45.455Z,8.02
2022-09-11T10:54:27.099Z,7.15
2022-09-11T10:57:00.221Z,7.05
2022-09-11T10:59:56.186Z,6.87
2022-09-11T11:02:35.264Z,6.93
2022-09-11T11:05:09.330Z,7.75
2022-09-11T11:07:56.178Z,7.80
2022-09-11T11:10:45.829Z,7.28
2022-09-11T11:13:49.387Z,7.82
2022-09-11T11:16:35.036Z,7.10
2022-09-11T11:19:27.738Z,7.47
2022-09-11T11:22:00.716Z,7.47
2022-09-11T11:24:55.273Z,7.03
2022-09-11T11:27:34.877Z,7.25
2022-09-11T11:30:15.131Z,7.18
2022-09-11T11:32:48.293Z,8.90
2022-09-11T11:35:32.095Z,8.07
2022-09-11T11:38:20.157Z,9.10
2022-09-11T11:40:51.312Z,8.10
2022-09-11T11:43:22.299Z,9.25
2022-09-11T11:46:23.428Z,8.57
2022-09-11T11:49:01.854Z,7.97
2022-09-11T11:51:44.196Z,9.82
2022-09-11T11:54:20.364Z,10.68
2022-09-11T11:57:10.489Z,7.62
2022-09-11T11:59:58.310Z,8.30
2022-09-11T12:02:31.138Z,8.55
2022-09-11T12:05:03.517Z,8.15
2022-09-11T12:07:36.671Z,8.40
2022-09-11T12:10:06.680Z,7.72
2022-09-11T12:12:45.429Z,8.82
2022-09-11T12:15:21.986Z,8.40
2022-09-11T12:18:02.639Z,8.75
2022-09-11T12:20:43.003Z,7.97
2022-09-11T12:23:46.987Z,8.18
2022-09-11T12:26:27.560Z,8.05
2022-09-11T12:29:29.752Z,8.25
2022-09-11T12:31:59.856Z,8.20
2022-09-11T12:34:46.852Z,8.45
2022-09-11T12:37:33.088Z,9.02
2022-09-11T12:40:18.750Z,7.87
2022-09-11T12:42:48.422Z,8.55
2022-09-11T12:45:31.995Z,8.75
2022-09-11T12:48:22.936Z,8.52
2022-09-11T12:50:56.747Z,8.93
2022-09-11T12:53:36.482Z,8.48
2022-09-11T12:56:16.304Z,8.48
2022-09-11T12:58:47.736Z,7.93
2022-09-11T13:01:20.465Z,8.23
2022-09-11T13:04:09.137Z,7.90
2022-09-11T13:06:51.653Z,7.53
2022-09-11T13:09:41.624Z,7.43
2022-09-11T13:12:23.646Z,7.53
2022-09-11T13:14:53.897Z,7.62
2022-09-11T13:17:30.473Z,6.70
2022-09-11T13:20:09.950Z,7.40
2022-09-11T13:22:37.574Z,10.25
2022-09-11T13:25:19.952Z,9.00
2022-09-11T13:27:50.758Z,7.18
2022-09-11T13:30:21.741Z,7.12
2022-09-11T13:33:02.009Z,8.63
2022-09-11T13:35:29.977Z,8.02
2022-09-11T13:38:13.814Z,8.02
2022-09-11T13:40:48.929Z,8.23
2022-09-11T13:43:23.830Z,7.75
2022-09-11T13:46:10.421Z,8.35
2022-09-11T13:48:37.436Z,7.47
2022-09-11T13:51:06.166Z,8.77
2022-09-11T13:53:35.786Z,9.63
2022-09-11T13:56:02.795Z,9.60
2022-09-11T13:58:35.650Z,8.95
2022-09-11T14:01:12.752Z,9.13
2022-09-11T14:03:46.008Z,8.35
2022-09-11T14:06:18.938Z,8.98
2022-09-11T14:08:51.811Z,9.48
2022-09-11T14:11:26.254Z,8.52
2022-09-11T14:13:58.656Z,9.02
2022-09-11T14:16:33.510Z,9.57
2022-09-11T14:19:03.898Z,9.75
2022-09-11T14:21:36.855Z,9.45
2022-09-11T14:24:24.109Z,9.10
2022-09-11T14:26:50.779Z,9.52
2022-09-11T14:29:24.754Z,10.18
2022-09-11T14:31:53.024Z,12.07
2022-09-11T14:34:23.281Z,9.80
2022-09-11T14:36:57.534Z,9.95
2022-09-11T14:39:33.091Z,9.23
2022-09-11T14:42:01.150Z,9.15
2022-09-11T14:44:29.015Z,9.45
2022-09-11T14:46:57.755Z,9.30
2022-09-11T14:49:24.544Z,9.52
2022-09-11T14:51:58.495Z,8.93
2022-09-11T14:54:31.214Z,9.57
2022-09-11T14:57:01.051Z,9.70
2022-09-11T14:59:30.738Z,9.18
2022-09-11T15:01:58.818Z,9.40
2022-09-11T15:04:26.048Z,10.45
2022-09-11T15:06:55.549Z,9.50
2022-09-11T15:09:25.278Z,10.25
2022-09-11T15:11:53.085Z,11.00
2022-09-11T15:14:44.619Z,9.93
2022-09-11T15:17:11.956Z,9.77
2022-09-11T15:19:39.063Z,10.27
2022-09-11T15:22:06.610Z,10.40
2022-09-11T15:24:34.855Z,9.95
2022-09-11T15:27:01.547Z,9.57
2022-09-11T15:29:31.514Z,9.90
2022-09-11T15:32:01.984Z,9.57
2022-09-11T15:34:32.499Z,9.63
2022-09-11T15:37:00.263Z,9.98
2022-09-11T15:39:27.973Z,10.48
2022-09-11T15:41:55.756Z,10.40
2022-09-11T15:44:25.356Z,10.25
2022-09-11T15:46:54.342Z,10.15
2022-09-11T15:49:23.258Z,10.63
2022-09-11T15:51:51.528Z,10.77
2022-09-11T15:54:19.236Z,11.45
2022-09-11T15:56:46.818Z,11.20
2022-09-11T15:59:17.702Z,11.30
2022-09-11T16:01:44.976Z,13.13
2022-09-11T16:04:16.548Z,14.93
2022-09-11T16:06:45.757Z,17.67
2022-09-11T16:09:24.243Z,19.30
2022-09-11T16:11:51.631Z,18.70
2022-09-11T16:14:21.259Z,20.37
2022-09-11T16:16:48.383Z,19.70
2022-09-11T16:19:20.819Z,21.70
2022-09-11T16:21:48.569Z,21.48
2022-09-11T16:24:16.209Z,20.52
2022-09-11T16:26:44.234Z,22.52
2022-09-11T16:29:14.740Z,22.37
2022-09-11T16:31:42.262Z,21.67
2022-09-11T16:34:09.443Z,21.65
2022-09-11T16:36:38.797Z,19.80
2022-09-11T16:39:11.068Z,19.23
2022-09-11T16:41:38.569Z,19.33
2022-09-11T16:44:07.328Z,18.98
2022-09-11T16:46:34.616Z,18.80
2022-09-11T16:49:02.245Z,17.85
2022-09-11T16:51:29.709Z,17.70
2022-09-11T16:53:57.049Z,18.70
2022-09-11T16:56:25.877Z,18.70
2022-09-11T16:58:54.263Z,18.95
2022-09-11T17:01:23.863Z,18.02
2022-09-11T17:03:52.838Z,16.98
2022-09-11T17:06:20.844Z,18.10
2022-09-11T17:08:50.715Z,17.37
2022-09-11T17:11:20.657Z,18.20
2022-09-11T17:13:48.602Z,18.83
2022-09-11T17:16:18.793Z,21.40
2022-09-11T17:18:54.189Z,21.73
2022-09-11T17:21:25.416Z,21.92
2022-09-11T17:23:54.620Z,22.60
2022-09-11T17:26:22.165Z,22.20
2022-09-11T17:28:50.577Z,20.92
2022-09-11T17:31:19.553Z,22.40
2022-09-11T17:33:48.157Z,21.27
2022-09-11T17:36:17.656Z,20.10
2022-09-11T17:38:46.012Z,20.23
2022-09-11T17:41:13.161Z,19.60
2022-09-11T17:43:40.714Z,18.15
2022-09-11T17:46:12.070Z,18.20
2022-09-11T17:48:39.782Z,17.17
2022-09-11T17:51:08.082Z,17.25
2022-09-11T17:53:38.587Z,16.98
2022-09-11T17:56:08.014Z,15.68
2022-09-11T17:58:35.288Z,14.65
2022-09-11T18:01:02.863Z,14.55
2022-09-11T18:03:31.756Z,14.00
2022-09-11T18:05:59.427Z,14.18
2022-09-11T18:08:27.357Z,13.90
2022-09-11T18:11:00.168Z,13.43
2022-09-11T18:13:29.051Z,13.62
2022-09-11T18:15:56.292Z,14.15
2022-09-11T18:18:23.739Z,14.35
2022-09-11T18:20:53.983Z,15.52
2022-09-11T18:23:23.224Z,15.65
2022-09-11T18:25:51.458Z,15.30
2022-09-11T18:28:20.148Z,14.93
2022-09-11T18:30:47.493Z,15.10
2022-09-11T18:33:16.741Z,13.80
2022-09-11T18:35:44.325Z,13.95
2022-09-11T18:38:11.417Z,15.32
2022-09-11T18:40:39.088Z,14.32
2022-09-11T18:43:08.793Z,14.23
2022-09-11T18:45:36.476Z,14.18
2022-09-11T18:48:04.678Z,15.98
2022-09-11T18:50:31.549Z,16.80
2022-09-11T18:53:00.167Z,15.30
2022-09-11T18:55:29.044Z,17.15
2022-09-11T18:57:56.250Z,17.40
2022-09-11T19:00:23.323Z,17.60
2022-09-11T19:02:53.262Z,18.08
2022-09-11T19:05:21.243Z,18.12
2022-09-11T19:07:48.403Z,16.70
2022-09-11T19:10:15.181Z,17.05
2022-09-11T19:12:42.049Z,18.08
2022-09-11T19:15:09.934Z,16.00
2022-09-11T19:17:37.309Z,16.92
2022-09-11T19:20:08.295Z,17.00
2022-09-11T19:22:35.695Z,16.87
2022-09-11T19:25:02.429Z,15.90
2022-09-11T19:27:31.630Z,17.48
2022-09-11T19:29:59.947Z,17.15
2022-09-11T19:32:28.454Z,16.42
2022-09-11T19:34:55.479Z,17.35
2022-09-11T19:37:24.269Z,17.75
2022-09-11T19:39:51.932Z,18.17
2022-09-11T19:42:19.007Z,18.55
2022-09-11T19:44:46.228Z,17.95
2022-09-11T19:47:12.936Z,18.45
2022-09-11T19:49:39.641Z,17.50
2022-09-11T19:52:08.050Z,16.90
2022-09-11T19:54:35.467Z,18.20
2022-09-11T19:57:02.566Z,16.95
2022-09-11T19:59:29.556Z,17.58
2022-09-11T20:01:56.499Z,19.12
2022-09-11T20:04:24.211Z,18.75
2022-09-11T20:09:32.853Z,21.10
2022-09-11T20:12:01.165Z,20.62
2022-09-11T20:14:29.564Z,22.62
2022-09-11T20:16:56.215Z,24.65
2022-09-11T20:19:23.358Z,25.12
2022-09-11T20:21:50.046Z,26.48
2022-09-11T20:24:17.121Z,30.02
2022-09-11T20:26:44.082Z,29.40
2022-09-11T20:29:14.009Z,29.73
2022-09-11T20:31:47.374Z,28.58
2022-09-11T20:34:19.713Z,28.33
2022-09-11T20:36:47.163Z,27.98
2022-09-11T20:39:15.273Z,28.48
2022-09-11T20:41:43.334Z,28.17
2022-09-11T20:44:11.458Z,28.27
2022-09-11T20:46:38.242Z,27.60
2022-09-11T20:49:05.407Z,27.87
2022-09-11T20:54:00.894Z,27.33
2022-09-11T20:56:28.508Z,27.02
2022-09-11T20:58:56.392Z,26.23
2022-09-11T21:01:34.196Z,26.65
2022-09-11T21:04:03.590Z,25.20
2022-09-11T21:06:32.417Z,24.87
2022-09-11T21:09:06.888Z,24.58
2022-09-11T21:11:35.186Z,24.30
2022-09-11T21:14:02.037Z,26.30
2022-09-11T21:16:28.810Z,26.48
2022-09-11T21:18:58.004Z,25.90
2022-09-11T21:21:26.989Z,25.52
2022-09-11T21:23:55.230Z,25.52
2022-09-11T21:26:22.880Z,26.35
2022-09-11T21:28:49.476Z,26.42
2022-09-11T21:31:16.314Z,24.12
2022-09-11T21:33:43.410Z,26.15
2022-09-11T21:36:10.132Z,26.60
2022-09-11T21:38:37.041Z,26.95
2022-09-11T21:41:06.816Z,28.15
2022-09-11T21:43:33.570Z,27.83
2022-09-11T21:46:00.442Z,27.83
2022-09-11T21:48:31.310Z,28.27
2022-09-11T21:51:13.014Z,28.75
2022-09-11T21:53:42.785Z,28.00
2022-09-11T21:56:29.512Z,29.83
2022-09-11T21:58:56.814Z,28.30
2022-09-11T22:01:25.764Z,28.08
2022-09-11T22:03:54.260Z,29.00
2022-09-11T22:06:24.665Z,28.38
2022-09-11T22:08:52.397Z,28.77
2022-09-11T22:11:20.178Z,28.45
2022-09-11T22:13:47.818Z,29.83
2022-09-11T22:16:18.328Z,29.05
2022-09-11T22:18:50.031Z,29.30
2022-09-11T22:21:16.968Z,27.98
2022-09-11T22:23:44.258Z,28.80
2022-09-11T22:26:18.887Z,29.05
2022-09-11T22:28:46.157Z,27.98
2022-09-11T22:31:19.100Z,28.10
2022-09-11T22:33:46.069Z,29.20
2022-09-11T22:36:23.532Z,27.98
2022-09-11T22:38:50.790Z,28.35
2022-09-11T22:41:18.806Z,28.05
2022-09-11T22:43:47.483Z,26.52
2022-09-11T22:46:15.278Z,26.75
2022-09-11T22:48:42.566Z,28.60
2022-09-11T22:51:10.090Z,27.55
2022-09-11T22:53:39.501Z,26.58
2022-09-11T22:56:07.066Z,28.17
2022-09-11T22:58:33.970Z,25.77
2022-09-11T23:01:03.497Z,28.38
2022-09-11T23:03:30.821Z,25.42
2022-09-11T23:06:17.585Z,27.08
2022-09-11T23:08:46.048Z,25.92
2022-09-11T23:11:17.086Z,24.23
2022-09-11T23:13:44.385Z,26.15
2022-09-11T23:16:18.763Z,25.60
2022-09-11T23:18:46.269Z,24.98
2022-09-11T23:21:13.159Z,23.67
2022-09-11T23:23:44.781Z,24.73
2022-09-11T23:26:13.581Z,24.50
2022-09-11T23:28:40.310Z,24.83
2022-09-11T23:31:16.254Z,25.88
2022-09-11T23:33:43.326Z,24.90
2022-09-11T23:36:11.927Z,25.55
2022-09-11T23:38:38.627Z,24.87
2022-09-11T23:41:05.955Z,24.92
2022-09-11T23:43:32.702Z,24.75
2022-09-11T23:45:59.327Z,25.55
2022-09-11T23:48:26.256Z,25.30
2022-09-11T23:50:52.868Z,25.58
2022-09-11T23:53:19.511Z,23.55
2022-09-11T23:55:48.294Z,24.67
2022-09-11T23:58:15.275Z,25.48
